createdAt,value
2018-10-07T21:23:24.967Z,1018.97
2018-10-07T21:25:45.426Z,1019.03
2018-10-07T21:26:45.460Z,1019.01
2018-10-07T21:28:49.538Z,1018.98
2018-10-07T21:29:49.640Z,1019.00
2018-10-07T21:31:53.575Z,1018.95
2018-10-07T21:32:53.640Z,1018.98
2018-10-07T21:34:46.604Z,1018.95
2018-10-07T21:35:46.607Z,1018.91
2018-10-07T21:37:50.646Z,1018.94
2018-10-07T21:38:50.688Z,1018.93
2018-10-07T21:40:54.716Z,1018.92
2018-10-07T21:41:54.776Z,1018.87
2018-10-07T21:43:58.788Z,1018.87
2018-10-07T21:44:58.821Z,1018.82
2018-10-07T21:47:02.912Z,1018.91
2018-10-07T21:48:02.883Z,1018.89
2018-10-07T21:50:07.029Z,1018.93
2018-10-07T21:51:06.952Z,1018.91
2018-10-07T21:53:10.986Z,1018.89
2018-10-07T21:54:11.015Z,1018.92
2018-10-07T21:56:15.650Z,1018.86
2018-10-07T21:57:15.574Z,1018.85
2018-10-07T21:58:15.607Z,1018.85
2018-10-07T21:59:15.643Z,1018.84
2018-10-07T22:00:15.677Z,1018.84
2018-10-07T22:01:15.711Z,1018.84
2018-10-07T22:02:15.746Z,1018.84
2018-10-07T22:03:15.782Z,1018.80
2018-10-07T22:04:15.815Z,1018.83
2018-10-07T22:05:15.853Z,1018.77
2018-10-07T22:06:15.887Z,1018.76
2018-10-07T22:07:15.918Z,1018.73
2018-10-07T22:08:15.957Z,1018.68
2018-10-07T22:09:15.988Z,1018.71
2018-10-07T22:10:16.022Z,1018.67
2018-10-07T22:11:16.055Z,1018.62
2018-10-07T22:12:16.090Z,1018.59
2018-10-07T22:13:16.124Z,1018.62
2018-10-07T22:14:16.159Z,1018.57
2018-10-07T22:15:16.192Z,1018.59
2018-10-07T22:16:16.227Z,1018.59
2018-10-07T22:17:16.260Z,1018.60
2018-10-07T22:18:16.296Z,1018.62
2018-10-07T22:19:16.328Z,1018.60
2018-10-07T22:20:16.361Z,1018.56
2018-10-07T22:21:16.397Z,1018.59
2018-10-07T22:22:16.432Z,1018.59
2018-10-07T22:23:16.467Z,1018.55
2018-10-07T22:24:16.499Z,1018.57
2018-10-07T22:25:16.531Z,1018.55
2018-10-07T22:26:16.566Z,1018.53
2018-10-07T22:27:16.600Z,1018.47
2018-10-07T22:28:16.636Z,1018.44
2018-10-07T22:29:16.666Z,1018.44
2018-10-07T22:30:16.702Z,1018.40
2018-10-07T22:31:16.734Z,1018.41
2018-10-07T22:32:16.771Z,1018.40
2018-10-07T22:33:16.805Z,1018.41
2018-10-07T22:34:16.837Z,1018.40
2018-10-07T22:35:16.869Z,1018.39
2018-10-07T22:36:16.906Z,1018.40
2018-10-07T22:37:16.940Z,1018.39
2018-10-07T22:38:16.972Z,1018.40
2018-10-07T22:39:17.004Z,1018.39
2018-10-07T22:40:17.039Z,1018.39
2018-10-07T22:41:17.071Z,1018.42
2018-10-07T22:42:17.105Z,1018.44
2018-10-07T22:43:17.137Z,1018.46
2018-10-07T22:44:17.173Z,1018.49
2018-10-07T22:45:17.206Z,1018.46
2018-10-07T22:46:17.239Z,1018.51
2018-10-07T22:47:17.273Z,1018.49
2018-10-07T22:48:17.306Z,1018.48
2018-10-07T22:49:17.339Z,1018.45
2018-10-07T22:50:17.382Z,1018.45
2018-10-07T22:51:17.407Z,1018.47
2018-10-07T22:52:17.439Z,1018.45
2018-10-07T22:53:17.473Z,1018.47
2018-10-07T22:54:17.506Z,1018.46
2018-10-07T22:55:17.544Z,1018.45
2018-10-07T22:56:17.578Z,1018.47
2018-10-07T22:57:17.608Z,1018.46
2018-10-07T22:58:17.648Z,1018.45
2018-10-07T22:59:17.675Z,1018.43
2018-10-07T23:00:17.728Z,1018.48
2018-10-07T23:01:17.741Z,1018.51
2018-10-07T23:02:17.778Z,1018.50
2018-10-07T23:03:17.808Z,1018.53
2018-10-07T23:04:17.841Z,1018.57
2018-10-07T23:05:17.875Z,1018.55
2018-10-07T23:06:17.910Z,1018.57
2018-10-07T23:07:17.973Z,1018.59
2018-10-07T23:08:17.974Z,1018.63
2018-10-07T23:09:18.010Z,1018.66
2018-10-07T23:10:18.042Z,1018.67
2018-10-07T23:11:18.077Z,1018.71
2018-10-07T23:12:18.111Z,1018.73
2018-10-07T23:13:18.140Z,1018.74
2018-10-07T23:14:18.173Z,1018.75
2018-10-07T23:15:18.205Z,1018.75
2018-10-07T23:16:18.238Z,1018.75
2018-10-07T23:17:18.292Z,1018.72
2018-10-07T23:18:18.306Z,1018.75
2018-10-07T23:19:18.339Z,1018.71
2018-10-07T23:20:18.376Z,1018.74
2018-10-07T23:21:18.404Z,1018.73
2018-10-07T23:22:18.441Z,1018.73
2018-10-07T23:23:18.470Z,1018.73
2018-10-07T23:24:18.506Z,1018.76
2018-10-07T23:25:18.538Z,1018.77
2018-10-07T23:26:18.579Z,1018.78
2018-10-07T23:27:18.608Z,1018.79
2018-10-07T23:28:18.637Z,1018.80
2018-10-07T23:29:18.729Z,1018.79
2018-10-07T23:30:18.707Z,1018.83
2018-10-07T23:31:18.737Z,1018.83
2018-10-07T23:32:18.769Z,1018.84
2018-10-07T23:33:18.807Z,1018.85
2018-10-07T23:34:18.836Z,1018.88
2018-10-07T23:35:18.868Z,1018.88
2018-10-07T23:36:18.901Z,1018.86
2018-10-07T23:37:18.981Z,1018.86
2018-10-07T23:38:18.968Z,1018.85
2018-10-07T23:39:19.003Z,1018.87
2018-10-07T23:40:19.035Z,1018.88
2018-10-07T23:41:19.066Z,1018.87
2018-10-07T23:42:19.102Z,1018.85
2018-10-07T23:43:19.131Z,1018.87
2018-10-07T23:44:19.166Z,1018.83
2018-10-07T23:45:19.199Z,1018.86
2018-10-07T23:46:19.232Z,1018.88
2018-10-07T23:47:19.268Z,1018.88
2018-10-07T23:48:19.297Z,1018.84
2018-10-07T23:49:19.333Z,1018.85
2018-10-07T23:50:19.365Z,1018.84
2018-10-07T23:51:19.446Z,1018.85
2018-10-07T23:52:19.428Z,1018.85
2018-10-07T23:53:19.463Z,1018.88
2018-10-07T23:54:19.496Z,1018.87
2018-10-07T23:55:19.590Z,1018.89
2018-10-07T23:56:19.560Z,1018.92
2018-10-07T23:57:19.594Z,1018.95
2018-10-07T23:58:19.629Z,1018.92
2018-10-07T23:59:19.660Z,1018.99
